createdAt,value
2022-12-15T00:08:36.252Z,99.90
2022-12-15T00:11:22.301Z,99.90
2022-12-15T00:25:12.431Z,99.90
2022-12-15T00:36:21.327Z,99.90
2022-12-15T00:38:48.104Z,99.90
2022-12-15T00:41:18.641Z,99.90
2022-12-15T00:43:45.770Z,99.90
2022-12-15T00:48:58.534Z,99.90
2022-12-15T00:51:43.805Z,99.90
2022-12-15T00:54:29.603Z,99.90
2022-12-15T00:57:15.105Z,99.90
2022-12-15T01:00:00.761Z,99.90
2022-12-15T01:02:46.338Z,99.00
2022-12-15T01:05:31.666Z,98.90
2022-12-15T01:08:18.212Z,79.80
2022-12-15T01:11:03.792Z,90.80
2022-12-15T01:13:49.692Z,63.50
2022-12-15T01:19:21.505Z,1.00
2022-12-15T01:24:16.330Z,1.00
2022-12-15T01:26:43.013Z,1.00
2022-12-15T01:29:09.645Z,1.00
2022-12-15T01:31:36.666Z,1.00
2022-12-15T01:41:25.033Z,1.00
2022-12-15T01:46:22.071Z,99.90
2022-12-15T01:49:20.703Z,99.90
2022-12-15T01:51:49.730Z,99.90
2022-12-15T01:54:32.842Z,99.90
2022-12-15T01:57:08.750Z,1.00
2022-12-15T01:59:40.492Z,1.00
2022-12-15T02:04:34.988Z,1.00
2022-12-15T02:07:01.639Z,1.00
2022-12-15T02:09:28.998Z,99.90
2022-12-15T02:12:10.887Z,99.90
2022-12-15T02:14:40.520Z,99.90
2022-12-15T02:17:27.672Z,99.90
2022-12-15T02:20:00.621Z,99.90
2022-12-15T02:22:42.294Z,99.90
2022-12-15T02:25:32.359Z,99.90
2022-12-15T02:28:05.770Z,9.70
2022-12-15T02:31:13.545Z,1.00
2022-12-15T02:33:58.043Z,1.00
2022-12-15T02:36:31.351Z,1.00
2022-12-15T02:41:43.000Z,99.90
2022-12-15T02:44:29.026Z,99.90
2022-12-15T02:49:43.028Z,98.80
2022-12-15T02:52:18.959Z,99.90
2022-12-15T02:55:04.059Z,99.60
2022-12-15T03:02:32.776Z,1.00
2022-12-15T03:05:00.192Z,1.00
2022-12-15T03:14:54.538Z,1.00
2022-12-15T03:17:21.269Z,1.00
2022-12-15T03:19:49.672Z,1.00
2022-12-15T03:27:10.820Z,47.70
2022-12-15T03:29:37.579Z,99.90
2022-12-15T03:34:31.500Z,99.90
2022-12-15T03:51:41.943Z,94.10
2022-12-15T04:01:32.937Z,14.50
2022-12-15T04:06:29.312Z,27.20
2022-12-15T04:08:56.043Z,60.30
2022-12-15T04:11:22.748Z,99.90
2022-12-15T04:13:49.381Z,99.90
2022-12-15T04:21:34.623Z,96.80
2022-12-15T04:24:19.771Z,99.90
2022-12-15T04:32:36.912Z,69.80
2022-12-15T04:35:22.500Z,95.90
2022-12-15T04:38:07.894Z,99.90
2022-12-15T04:40:54.145Z,99.90
2022-12-15T04:46:25.507Z,99.90
2022-12-15T04:49:10.793Z,99.90
2022-12-15T05:00:14.092Z,99.90
2022-12-15T05:02:59.697Z,99.90
2022-12-15T05:05:45.160Z,99.90
2022-12-15T05:11:18.599Z,1.00
2022-12-15T05:14:03.995Z,1.00
2022-12-15T05:16:49.461Z,1.00
2022-12-15T05:22:20.537Z,99.90
2022-12-15T05:25:05.966Z,99.90
2022-12-15T05:30:37.309Z,99.90
2022-12-15T05:33:05.007Z,99.90
2022-12-15T05:45:21.153Z,99.90
2022-12-15T05:47:51.748Z,99.90
2022-12-15T05:50:18.681Z,99.90
2022-12-15T05:55:17.645Z,99.90
2022-12-15T06:00:11.883Z,99.90
2022-12-15T06:07:33.906Z,99.90
2022-12-15T06:14:55.682Z,99.90
2022-12-15T06:41:53.345Z,99.90
2022-12-15T06:44:20.069Z,1.00
2022-12-15T06:46:47.020Z,1.00
2022-12-15T06:54:11.031Z,1.00
2022-12-15T06:56:38.710Z,1.00
2022-12-15T06:59:07.288Z,1.00
2022-12-15T07:01:35.046Z,1.00
2022-12-15T07:06:36.248Z,1.50
2022-12-15T07:09:04.016Z,99.90
2022-12-15T07:13:57.792Z,1.00
2022-12-15T07:16:24.903Z,99.90
2022-12-15T07:18:51.699Z,99.90
2022-12-15T07:26:22.457Z,29.30
2022-12-15T07:28:49.240Z,80.60
2022-12-15T07:36:10.949Z,99.90
2022-12-15T07:41:07.190Z,99.90
2022-12-15T07:46:03.872Z,99.90
2022-12-15T07:48:30.880Z,69.50
2022-12-15T07:51:04.899Z,1.00
2022-12-15T07:58:37.095Z,99.90
2022-12-15T08:01:06.935Z,99.90
2022-12-15T08:03:35.543Z,8.30
2022-12-15T08:06:07.589Z,8.90
2022-12-15T08:08:35.569Z,99.90
2022-12-15T08:11:06.845Z,99.90
2022-12-15T08:21:16.080Z,99.90
2022-12-15T08:23:42.736Z,99.90
2022-12-15T08:26:13.548Z,99.90
2022-12-15T08:28:41.510Z,1.00
2022-12-15T08:31:11.468Z,99.90
2022-12-15T08:33:39.248Z,10.60
2022-12-15T08:38:36.799Z,1.00
2022-12-15T08:41:13.224Z,99.90
2022-12-15T08:43:47.460Z,99.90
2022-12-15T08:46:16.808Z,99.90
2022-12-15T08:48:43.942Z,99.90
2022-12-15T08:56:08.179Z,99.90
2022-12-15T09:01:07.251Z,99.90
2022-12-15T09:03:35.443Z,99.90
2022-12-15T09:06:16.330Z,99.90
2022-12-15T09:13:42.287Z,99.90
2022-12-15T09:16:14.855Z,50.80
2022-12-15T09:18:50.238Z,1.00
2022-12-15T09:21:17.746Z,1.00
2022-12-15T09:23:48.668Z,99.90
2022-12-15T09:26:15.913Z,99.90
2022-12-15T09:28:43.277Z,99.90
2022-12-15T09:31:22.224Z,39.50
2022-12-15T09:33:50.659Z,1.00
2022-12-15T09:36:17.342Z,1.00
2022-12-15T09:41:17.123Z,99.90
2022-12-15T09:44:10.186Z,99.90
2022-12-15T09:47:07.871Z,99.90
2022-12-15T09:49:53.032Z,99.90
2022-12-15T09:52:25.427Z,99.90
2022-12-15T09:54:52.444Z,99.90
2022-12-15T09:57:24.918Z,99.90
2022-12-15T09:59:57.647Z,73.30
2022-12-15T10:03:02.089Z,31.60
2022-12-15T10:08:56.738Z,90.10
2022-12-15T10:11:44.988Z,85.90
2022-12-15T10:17:02.533Z,1.00
2022-12-15T10:19:41.222Z,1.00
2022-12-15T10:22:14.158Z,1.00
2022-12-15T10:27:47.125Z,1.00
2022-12-15T10:30:16.201Z,1.00
2022-12-15T10:32:52.223Z,1.00
2022-12-15T10:35:28.896Z,1.00
2022-12-15T10:38:06.953Z,1.00
2022-12-15T10:40:50.557Z,1.00
2022-12-15T10:43:26.655Z,99.90
2022-12-15T10:46:21.875Z,99.90
2022-12-15T10:48:55.932Z,99.90
2022-12-15T10:51:36.991Z,99.90
2022-12-15T10:54:05.506Z,99.90
2022-12-15T10:56:34.516Z,99.90
2022-12-15T10:59:21.852Z,99.90
2022-12-15T11:04:33.909Z,99.90
2022-12-15T11:07:02.623Z,99.90
2022-12-15T11:09:36.131Z,99.90
2022-12-15T11:12:36.615Z,99.90
2022-12-15T11:15:23.241Z,99.90
2022-12-15T11:18:15.587Z,99.90
2022-12-15T11:20:59.605Z,99.90
2022-12-15T11:23:46.790Z,99.90
2022-12-15T11:27:00.552Z,99.90
2022-12-15T11:29:42.854Z,99.90
2022-12-15T11:32:11.588Z,99.90
2022-12-15T11:34:44.496Z,99.90
2022-12-15T11:37:36.872Z,99.90
2022-12-15T11:43:01.127Z,99.90
2022-12-15T11:45:36.627Z,91.30
2022-12-15T11:48:17.295Z,99.90
2022-12-15T11:51:01.836Z,99.90
2022-12-15T11:53:56.053Z,99.90
2022-12-15T11:56:23.886Z,99.60
2022-12-15T11:58:55.423Z,84.10
2022-12-15T12:04:07.031Z,94.20
2022-12-15T12:06:50.210Z,94.30
2022-12-15T12:09:29.061Z,99.90
2022-12-15T12:12:13.466Z,99.90
2022-12-15T12:14:50.397Z,66.20
2022-12-15T12:17:37.515Z,50.20
2022-12-15T12:20:19.335Z,28.40
2022-12-15T12:23:27.943Z,71.20
2022-12-15T12:26:05.647Z,77.80
2022-12-15T12:28:46.695Z,94.70
2022-12-15T12:31:43.456Z,99.90
2022-12-15T12:34:22.549Z,99.90
2022-12-15T12:36:50.704Z,99.90
2022-12-15T12:39:24.366Z,99.90
2022-12-15T12:41:56.773Z,99.90
2022-12-15T12:44:37.623Z,99.90
2022-12-15T12:47:13.306Z,99.90
2022-12-15T12:49:50.310Z,99.90
2022-12-15T12:52:27.805Z,99.90
2022-12-15T12:55:23.771Z,99.90
2022-12-15T12:57:50.497Z,99.90
2022-12-15T13:00:29.144Z,99.90
2022-12-15T13:03:12.429Z,99.90
2022-12-15T13:05:41.202Z,99.90
2022-12-15T13:10:38.160Z,99.90
2022-12-15T13:13:31.249Z,99.90
2022-12-15T13:16:11.942Z,99.90
2022-12-15T13:19:03.574Z,99.90
2022-12-15T13:21:42.616Z,99.90
2022-12-15T13:24:33.591Z,99.90
2022-12-15T13:27:09.075Z,99.90
2022-12-15T13:29:57.128Z,99.90
2022-12-15T13:32:31.853Z,99.90
2022-12-15T13:35:13.462Z,99.90
2022-12-15T13:37:56.883Z,99.90
2022-12-15T13:43:05.859Z,99.90
2022-12-15T13:45:50.241Z,99.90
2022-12-15T13:50:51.438Z,99.90
2022-12-15T13:53:22.361Z,99.90
2022-12-15T13:55:56.290Z,99.90
2022-12-15T13:58:24.643Z,99.90
2022-12-15T14:00:54.363Z,99.90
2022-12-15T14:05:57.142Z,99.90
2022-12-15T14:08:28.463Z,99.90
2022-12-15T14:10:57.970Z,99.90
2022-12-15T14:13:28.840Z,99.90
2022-12-15T14:16:00.835Z,99.90
2022-12-15T14:18:36.455Z,99.90
2022-12-15T14:21:08.071Z,99.90
2022-12-15T14:24:04.094Z,99.90
2022-12-15T14:29:05.320Z,99.90
2022-12-15T14:31:32.901Z,99.90
2022-12-15T14:34:10.846Z,99.90
2022-12-15T14:36:39.430Z,99.90
2022-12-15T14:39:13.812Z,99.90
2022-12-15T14:41:45.382Z,99.90
2022-12-15T14:44:39.188Z,99.90
2022-12-15T14:47:16.668Z,99.90
2022-12-15T14:49:45.666Z,1.00
2022-12-15T14:52:39.779Z,1.00
2022-12-15T14:55:25.203Z,1.00
2022-12-15T14:57:53.079Z,1.00
2022-12-15T15:00:32.881Z,1.00
2022-12-15T15:03:20.128Z,1.00
2022-12-15T15:05:57.180Z,1.00
2022-12-15T15:08:26.717Z,1.00
2022-12-15T15:10:55.806Z,1.00
2022-12-15T15:13:26.774Z,1.00
2022-12-15T15:15:56.177Z,1.00
2022-12-15T15:18:29.340Z,1.00
2022-12-15T15:21:00.059Z,1.00
2022-12-15T15:23:26.891Z,1.00
2022-12-15T15:25:56.523Z,1.00
2022-12-15T15:28:35.756Z,38.50
2022-12-15T15:31:25.595Z,51.60
2022-12-15T15:36:21.102Z,99.90
2022-12-15T15:38:47.905Z,99.90
2022-12-15T15:43:42.330Z,99.90
2022-12-15T15:46:15.937Z,1.00
2022-12-15T15:48:47.724Z,1.00
2022-12-15T15:51:14.564Z,1.00
2022-12-15T15:56:11.919Z,1.00
2022-12-15T15:58:38.776Z,1.00
2022-12-15T16:03:40.496Z,1.00
2022-12-15T16:06:17.154Z,39.10
2022-12-15T16:08:46.554Z,99.90
2022-12-15T16:11:13.367Z,99.90
2022-12-15T16:21:02.808Z,1.00
2022-12-15T16:23:29.879Z,1.00
2022-12-15T16:25:58.403Z,12.90
2022-12-15T16:28:28.239Z,13.50
2022-12-15T16:30:56.153Z,99.90
2022-12-15T16:35:50.477Z,1.00
2022-12-15T16:38:30.075Z,99.90
2022-12-15T16:40:58.723Z,1.00
2022-12-15T16:43:32.919Z,99.90
2022-12-15T16:50:59.149Z,1.00
2022-12-15T16:53:30.511Z,1.00
2022-12-15T16:55:59.770Z,1.00
2022-12-15T16:58:28.694Z,1.00
2022-12-15T17:03:25.979Z,99.90
2022-12-15T17:06:01.835Z,99.90
2022-12-15T17:08:42.846Z,99.90
2022-12-15T17:11:22.349Z,99.90
2022-12-15T17:13:51.415Z,99.90
2022-12-15T17:16:19.984Z,99.90
2022-12-15T17:18:47.154Z,99.90
2022-12-15T17:21:18.553Z,99.90
2022-12-15T17:23:48.939Z,99.90
2022-12-15T17:26:29.279Z,99.90
2022-12-15T17:29:01.097Z,99.90
2022-12-15T17:31:34.829Z,99.90
2022-12-15T17:34:08.432Z,99.90
2022-12-15T17:39:02.381Z,99.90
2022-12-15T17:44:34.761Z,99.90
2022-12-15T17:47:03.947Z,99.90
2022-12-15T17:49:35.545Z,99.90
2022-12-15T17:52:16.587Z,99.90
2022-12-15T17:57:13.286Z,99.90
2022-12-15T18:02:11.127Z,99.90
2022-12-15T18:04:37.887Z,99.90
2022-12-15T18:07:04.936Z,99.90
2022-12-15T18:09:31.627Z,99.90
2022-12-15T18:14:27.303Z,99.90
2022-12-15T18:21:48.190Z,99.90
2022-12-15T18:24:17.460Z,99.90
2022-12-15T18:26:44.403Z,99.90
2022-12-15T18:29:17.964Z,99.90
2022-12-15T18:31:46.972Z,99.90
2022-12-15T18:34:18.889Z,99.90
2022-12-15T18:39:20.822Z,99.90
2022-12-15T18:41:48.757Z,99.90
2022-12-15T18:44:26.663Z,99.90
2022-12-15T18:46:55.252Z,99.90
2022-12-15T18:49:23.008Z,99.90
2022-12-15T18:51:49.819Z,99.90
2022-12-15T18:54:22.353Z,99.90
2022-12-15T18:56:49.413Z,99.90
2022-12-15T18:59:17.623Z,99.90
2022-12-15T19:01:45.794Z,99.90
2022-12-15T19:06:40.810Z,1.00
2022-12-15T19:09:23.105Z,1.00
2022-12-15T19:12:09.238Z,1.00
2022-12-15T19:14:42.615Z,1.00
2022-12-15T19:17:33.692Z,1.00
2022-12-15T19:20:19.660Z,1.00
2022-12-15T19:22:48.356Z,1.00
2022-12-15T19:25:26.421Z,99.90
2022-12-15T19:27:58.918Z,99.90
2022-12-15T19:30:28.244Z,99.90
2022-12-15T19:32:55.572Z,1.00
2022-12-15T19:35:22.657Z,1.00
2022-12-15T19:37:50.025Z,99.90
2022-12-15T19:40:27.679Z,99.90
2022-12-15T19:42:55.436Z,99.90
2022-12-15T19:45:30.696Z,99.90
2022-12-15T19:47:58.031Z,99.90
2022-12-15T19:50:28.514Z,95.30
2022-12-15T19:52:58.573Z,99.90
2022-12-15T19:55:35.932Z,99.90
2022-12-15T19:58:27.335Z,99.90
2022-12-15T20:01:00.647Z,1.00
2022-12-15T20:03:28.936Z,1.00
2022-12-15T20:05:57.317Z,1.00
2022-12-15T20:08:26.786Z,1.00
2022-12-15T20:10:54.588Z,1.00
2022-12-15T20:13:22.995Z,1.00
2022-12-15T20:15:49.751Z,1.00
2022-12-15T20:18:16.430Z,1.00
2022-12-15T20:20:45.665Z,1.00
2022-12-15T20:23:21.800Z,1.00
2022-12-15T20:28:22.297Z,1.00
2022-12-15T20:30:49.668Z,1.00
2022-12-15T20:33:17.313Z,1.00
2022-12-15T20:35:46.925Z,1.00
2022-12-15T20:38:33.319Z,23.10
2022-12-15T20:41:01.710Z,78.40
2022-12-15T20:43:31.667Z,1.00
2022-12-15T20:46:10.907Z,1.00
2022-12-15T20:48:37.780Z,1.00
2022-12-15T20:58:33.362Z,36.10
2022-12-15T21:01:00.414Z,69.00
2022-12-15T21:03:30.500Z,1.00
2022-12-15T21:05:58.724Z,1.00
2022-12-15T21:08:28.399Z,1.00
2022-12-15T21:11:01.201Z,1.00
2022-12-15T21:13:31.329Z,1.00
2022-12-15T21:15:59.495Z,1.00
2022-12-15T21:19:18.100Z,1.00
2022-12-15T21:21:27.715Z,99.90
2022-12-15T21:23:55.296Z,1.00
2022-12-15T21:26:23.724Z,99.90
2022-12-15T21:28:54.173Z,1.00
2022-12-15T21:31:21.719Z,1.00
2022-12-15T21:36:18.578Z,99.90
2022-12-15T21:38:47.292Z,99.90
2022-12-15T21:41:17.317Z,1.00
2022-12-15T21:43:44.393Z,1.00
2022-12-15T21:46:16.804Z,1.00
2022-12-15T21:49:02.808Z,1.00
2022-12-15T21:51:35.039Z,99.90
2022-12-15T21:54:01.984Z,99.90
2022-12-15T21:56:28.717Z,99.90
2022-12-15T22:01:28.654Z,1.00
2022-12-15T22:03:57.743Z,1.00
2022-12-15T22:06:26.998Z,99.90
2022-12-15T22:08:55.299Z,99.90
2022-12-15T22:11:32.211Z,99.90
2022-12-15T22:14:01.896Z,25.30
2022-12-15T22:16:28.774Z,29.10
2022-12-15T22:18:57.588Z,3.30
2022-12-15T22:21:25.208Z,3.90
2022-12-15T22:23:52.451Z,99.90
2022-12-15T22:26:22.451Z,1.00
2022-12-15T22:28:50.939Z,1.00
2022-12-15T22:38:40.056Z,1.00
2022-12-15T22:43:40.971Z,1.00
2022-12-15T22:46:12.454Z,1.00
2022-12-15T22:48:42.052Z,1.00
2022-12-15T22:51:13.722Z,99.90
2022-12-15T22:56:27.845Z,99.90
2022-12-15T22:59:02.287Z,99.90
2022-12-15T23:01:29.417Z,99.90
2022-12-15T23:08:55.903Z,1.00
2022-12-15T23:11:39.021Z,99.90
2022-12-15T23:14:14.737Z,99.90
2022-12-15T23:16:43.074Z,99.90
2022-12-15T23:21:51.009Z,99.90
2022-12-15T23:36:34.063Z,1.00
2022-12-15T23:48:50.306Z,1.00
2022-12-15T23:51:20.069Z,99.90
2022-12-15T23:53:47.711Z,99.90
2022-12-15T23:56:20.962Z,66.00
